sensor_id;sensor_type;location;lat;lon;timestamp;pressure;altitude;pressure_sealevel;temperature;humidity
34658;BME280;20865;43.312;27.152;2024-02-28T00:01:36;101011.39;;;13.09;43.57
34658;BME280;20865;43.312;27.152;2024-02-28T00:04:04;101010.11;;;13.07;43.39
34658;BME280;20865;43.312;27.152;2024-02-28T00:06:31;101013.20;;;13.08;43.15
34658;BME280;20865;43.312;27.152;2024-02-28T00:08:59;101018.11;;;13.09;43.14
34658;BME280;20865;43.312;27.152;2024-02-28T00:11:27;101009.56;;;13.11;43.04
34658;BME280;20865;43.312;27.152;2024-02-28T00:13:54;101011.78;;;13.11;42.54
34658;BME280;20865;43.312;27.152;2024-02-28T00:16:22;101011.34;;;13.10;42.44
34658;BME280;20865;43.312;27.152;2024-02-28T00:18:50;101014.08;;;13.09;42.16
34658;BME280;20865;43.312;27.152;2024-02-28T00:21:17;101013.23;;;13.07;42.06
34658;BME280;20865;43.312;27.152;2024-02-28T00:23:45;101010.28;;;13.01;42.29
34658;BME280;20865;43.312;27.152;2024-02-28T00:26:12;101018.27;;;13.03;42.22
34658;BME280;20865;43.312;27.152;2024-02-28T00:28:40;101011.30;;;12.97;42.17
34658;BME280;20865;43.312;27.152;2024-02-28T00:31:08;101012.67;;;12.96;42.08
34658;BME280;20865;43.312;27.152;2024-02-28T00:33:35;101008.64;;;12.96;41.94
34658;BME280;20865;43.312;27.152;2024-02-28T00:36:04;101001.53;;;12.95;41.91
34658;BME280;20865;43.312;27.152;2024-02-28T00:38:31;100999.42;;;12.90;41.63
34658;BME280;20865;43.312;27.152;2024-02-28T00:40:59;101004.98;;;12.83;41.00
34658;BME280;20865;43.312;27.152;2024-02-28T00:43:27;101004.84;;;12.72;41.25
34658;BME280;20865;43.312;27.152;2024-02-28T00:45:54;101001.45;;;12.65;41.37
34658;BME280;20865;43.312;27.152;2024-02-28T00:48:24;100997.44;;;12.65;41.49
34658;BME280;20865;43.312;27.152;2024-02-28T00:50:52;100999.24;;;12.64;41.67
34658;BME280;20865;43.312;27.152;2024-02-28T00:53:20;101002.14;;;12.57;41.70
34658;BME280;20865;43.312;27.152;2024-02-28T00:55:48;100990.48;;;12.58;42.54
34658;BME280;20865;43.312;27.152;2024-02-28T00:58:17;100999.05;;;12.56;43.33
34658;BME280;20865;43.312;27.152;2024-02-28T01:00:45;101002.63;;;12.55;43.58
34658;BME280;20865;43.312;27.152;2024-02-28T01:03:12;101001.42;;;12.50;43.68
34658;BME280;20865;43.312;27.152;2024-02-28T01:05:42;101001.81;;;12.53;43.49
34658;BME280;20865;43.312;27.152;2024-02-28T01:08:10;100996.91;;;12.52;43.47
34658;BME280;20865;43.312;27.152;2024-02-28T01:10:37;101003.69;;;12.49;43.50
34658;BME280;20865;43.312;27.152;2024-02-28T01:13:05;101001.40;;;12.52;43.54
34658;BME280;20865;43.312;27.152;2024-02-28T01:15:33;101008.72;;;12.45;41.53
34658;BME280;20865;43.312;27.152;2024-02-28T01:18:00;101005.34;;;12.37;40.97
34658;BME280;20865;43.312;27.152;2024-02-28T01:20:28;100996.50;;;12.33;42.03
34658;BME280;20865;43.312;27.152;2024-02-28T01:22:55;100995.48;;;12.39;42.80
34658;BME280;20865;43.312;27.152;2024-02-28T01:25:23;101005.73;;;12.39;43.58
34658;BME280;20865;43.312;27.152;2024-02-28T01:27:51;101002.80;;;12.32;42.45
34658;BME280;20865;43.312;27.152;2024-02-28T01:30:18;101002.33;;;12.33;41.65
34658;BME280;20865;43.312;27.152;2024-02-28T01:32:46;100993.49;;;12.29;41.46
34658;BME280;20865;43.312;27.152;2024-02-28T01:35:14;100994.03;;;12.26;41.50
34658;BME280;20865;43.312;27.152;2024-02-28T01:37:41;101000.78;;;12.24;41.67
34658;BME280;20865;43.312;27.152;2024-02-28T01:40:10;100995.03;;;12.22;41.61
34658;BME280;20865;43.312;27.152;2024-02-28T01:42:47;100994.16;;;12.21;41.65
34658;BME280;20865;43.312;27.152;2024-02-28T01:51:55;101005.91;;;12.15;42.00
34658;BME280;20865;43.312;27.152;2024-02-28T15:15:22;100911.89;;;22.56;35.61
34658;BME280;20865;43.312;27.152;2024-02-28T15:17:50;100915.34;;;22.45;35.59
34658;BME280;20865;43.312;27.152;2024-02-28T15:20:17;100918.84;;;22.47;35.52
34658;BME280;20865;43.312;27.152;2024-02-28T15:22:45;100921.37;;;22.30;35.76
34658;BME280;20865;43.312;27.152;2024-02-28T15:25:12;100916.34;;;22.24;35.79
34658;BME280;20865;43.312;27.152;2024-02-28T15:27:40;100926.31;;;22.18;35.78
34658;BME280;20865;43.312;27.152;2024-02-28T15:30:08;100928.01;;;21.99;36.06
34658;BME280;20865;43.312;27.152;2024-02-28T15:32:36;100934.76;;;21.94;36.09
34658;BME280;20865;43.312;27.152;2024-02-28T15:35:07;100935.39;;;21.77;36.29
34658;BME280;20865;43.312;27.152;2024-02-28T15:37:35;100945.98;;;21.75;36.33
34658;BME280;20865;43.312;27.152;2024-02-28T15:40:03;100949.36;;;21.78;36.29
34658;BME280;20865;43.312;27.152;2024-02-28T15:42:34;100946.79;;;21.70;36.38
34658;BME280;20865;43.312;27.152;2024-02-28T15:45:02;100951.36;;;21.69;36.29
34658;BME280;20865;43.312;27.152;2024-02-28T15:47:30;100952.05;;;21.66;36.36
34658;BME280;20865;43.312;27.152;2024-02-28T15:49:58;100952.13;;;21.64;36.29
34658;BME280;20865;43.312;27.152;2024-02-28T15:52:25;100955.05;;;21.61;36.29
34658;BME280;20865;43.312;27.152;2024-02-28T15:54:53;100959.27;;;21.45;36.51
34658;BME280;20865;43.312;27.152;2024-02-28T15:57:21;100960.47;;;21.34;36.65
34658;BME280;20865;43.312;27.152;2024-02-28T15:59:49;100956.63;;;21.29;36.71
34658;BME280;20865;43.312;27.152;2024-02-28T16:02:16;100962.08;;;21.22;36.81
34658;BME280;20865;43.312;27.152;2024-02-28T16:04:44;100958.87;;;21.15;36.82
34658;BME280;20865;43.312;27.152;2024-02-28T16:07:11;100962.28;;;21.05;36.95
34658;BME280;20865;43.312;27.152;2024-02-28T16:09:41;100961.97;;;21.02;37.03
34658;BME280;20865;43.312;27.152;2024-02-28T16:12:09;100970.91;;;20.97;37.09
34658;BME280;20865;43.312;27.152;2024-02-28T16:14:37;100974.12;;;20.89;37.17
34658;BME280;20865;43.312;27.152;2024-02-28T16:17:05;100979.05;;;20.83;37.25
34658;BME280;20865;43.312;27.152;2024-02-28T16:19:33;100983.87;;;20.70;37.38
34658;BME280;20865;43.312;27.152;2024-02-28T16:22:01;100979.04;;;20.68;37.40
34658;BME280;20865;43.312;27.152;2024-02-28T16:24:30;100982.30;;;20.52;37.31
34658;BME280;20865;43.312;27.152;2024-02-28T16:26:58;100988.34;;;20.41;37.49
34658;BME280;20865;43.312;27.152;2024-02-28T16:29:26;100987.45;;;20.34;37.56
34658;BME280;20865;43.312;27.152;2024-02-28T16:31:53;100988.47;;;20.24;37.66
34658;BME280;20865;43.312;27.152;2024-02-28T16:34:21;100992.31;;;20.13;37.77
34658;BME280;20865;43.312;27.152;2024-02-28T16:36:50;100997.08;;;20.01;37.98
34658;BME280;20865;43.312;27.152;2024-02-28T16:39:17;100998.27;;;19.81;38.21
34658;BME280;20865;43.312;27.152;2024-02-28T16:41:45;101006.36;;;19.73;38.39
34658;BME280;20865;43.312;27.152;2024-02-28T16:44:13;101011.94;;;19.62;38.62
34658;BME280;20865;43.312;27.152;2024-02-28T16:46:41;101012.93;;;19.52;38.85
34658;BME280;20865;43.312;27.152;2024-02-28T16:49:08;101012.59;;;19.42;39.02
34658;BME280;20865;43.312;27.152;2024-02-28T16:51:36;101016.23;;;19.25;39.30
34658;BME280;20865;43.312;27.152;2024-02-28T16:54:03;101022.41;;;19.12;39.53
34658;BME280;20865;43.312;27.152;2024-02-28T16:56:31;101024.36;;;18.75;40.29
34658;BME280;20865;43.312;27.152;2024-02-28T16:58:59;101026.75;;;18.81;40.17
34658;BME280;20865;43.312;27.152;2024-02-28T17:01:26;101023.94;;;18.39;40.95
34658;BME280;20865;43.312;27.152;2024-02-28T17:03:54;101021.27;;;18.12;41.61
34658;BME280;20865;43.312;27.152;2024-02-28T17:06:21;101028.75;;;18.06;41.58
34658;BME280;20865;43.312;27.152;2024-02-28T17:08:50;101024.33;;;17.95;41.92
34658;BME280;20865;43.312;27.152;2024-02-28T17:11:18;101029.64;;;17.88;42.07
34658;BME280;20865;43.312;27.152;2024-02-28T17:13:47;101031.41;;;17.60;42.62
34658;BME280;20865;43.312;27.152;2024-02-28T17:16:16;101038.70;;;17.39;42.99
34658;BME280;20865;43.312;27.152;2024-02-28T17:18:43;101039.02;;;17.33;43.26
34658;BME280;20865;43.312;27.152;2024-02-28T17:21:11;101033.41;;;16.98;43.99
34658;BME280;20865;43.312;27.152;2024-02-28T17:23:39;101033.47;;;16.86;44.29
34658;BME280;20865;43.312;27.152;2024-02-28T17:26:06;101037.91;;;16.98;44.05
34658;BME280;20865;43.312;27.152;2024-02-28T17:28:34;101035.20;;;16.87;44.29
34658;BME280;20865;43.312;27.152;2024-02-28T17:31:02;101035.77;;;16.96;44.03
34658;BME280;20865;43.312;27.152;2024-02-28T17:33:31;101041.22;;;16.84;44.31
34658;BME280;20865;43.312;27.152;2024-02-28T17:35:58;101048.56;;;16.70;44.48
34658;BME280;20865;43.312;27.152;2024-02-28T17:38:26;101050.13;;;16.76;44.34
34658;BME280;20865;43.312;27.152;2024-02-28T17:40:53;101049.48;;;16.59;44.79
34658;BME280;20865;43.312;27.152;2024-02-28T17:43:21;101037.08;;;16.65;44.55
34658;BME280;20865;43.312;27.152;2024-02-28T17:45:48;101039.44;;;16.62;44.70
34658;BME280;20865;43.312;27.152;2024-02-28T17:48:16;101044.21;;;16.56;45.07
34658;BME280;20865;43.312;27.152;2024-02-28T17:50:45;101040.47;;;16.60;44.83
34658;BME280;20865;43.312;27.152;2024-02-28T17:53:13;101030.73;;;16.35;45.05
34658;BME280;20865;43.312;27.152;2024-02-28T17:55:40;101036.86;;;16.49;44.99
34658;BME280;20865;43.312;27.152;2024-02-28T17:58:08;101039.03;;;16.51;44.77
34658;BME280;20865;43.312;27.152;2024-02-28T18:00:36;101047.52;;;16.52;44.85
34658;BME280;20865;43.312;27.152;2024-02-28T18:03:04;101049.91;;;16.70;44.52
34658;BME280;20865;43.312;27.152;2024-02-28T18:05:31;101049.84;;;16.72;44.60
34658;BME280;20865;43.312;27.152;2024-02-28T18:07:59;101055.40;;;16.79;44.69
34658;BME280;20865;43.312;27.152;2024-02-28T18:10:27;101050.66;;;16.84;44.76
34658;BME280;20865;43.312;27.152;2024-02-28T18:12:55;101053.66;;;16.88;44.61
34658;BME280;20865;43.312;27.152;2024-02-28T18:15:22;101049.52;;;16.79;44.42
34658;BME280;20865;43.312;27.152;2024-02-28T18:17:50;101052.05;;;16.72;44.38
34658;BME280;20865;43.312;27.152;2024-02-28T18:20:17;101051.58;;;16.62;44.86
34658;BME280;20865;43.312;27.152;2024-02-28T18:22:45;101052.05;;;16.62;44.94
34658;BME280;20865;43.312;27.152;2024-02-28T18:25:13;101052.39;;;16.64;44.89
34658;BME280;20865;43.312;27.152;2024-02-28T18:27:44;101058.66;;;16.55;44.84
34658;BME280;20865;43.312;27.152;2024-02-28T18:30:12;101064.44;;;16.56;44.91
34658;BME280;20865;43.312;27.152;2024-02-28T18:32:40;101059.05;;;16.56;44.82
34658;BME280;20865;43.312;27.152;2024-02-28T18:35:08;101065.00;;;16.54;44.75
34658;BME280;20865;43.312;27.152;2024-02-28T18:37:35;101072.09;;;16.56;44.87
34658;BME280;20865;43.312;27.152;2024-02-28T18:40:07;101072.59;;;16.44;45.15
34658;BME280;20865;43.312;27.152;2024-02-28T18:42:36;101073.25;;;16.29;45.66
34658;BME280;20865;43.312;27.152;2024-02-28T18:45:07;101080.14;;;16.36;45.50
34658;BME280;20865;43.312;27.152;2024-02-28T18:47:35;101078.14;;;16.19;45.98
34658;BME280;20865;43.312;27.152;2024-02-28T18:50:04;101087.22;;;16.16;46.08
34658;BME280;20865;43.312;27.152;2024-02-28T18:52:32;101088.97;;;16.17;46.24
34658;BME280;20865;43.312;27.152;2024-02-28T18:54:59;101086.11;;;16.10;46.22
34658;BME280;20865;43.312;27.152;2024-02-28T18:57:28;101085.44;;;16.05;46.30
34658;BME280;20865;43.312;27.152;2024-02-28T18:59:55;101093.88;;;15.61;47.51
34658;BME280;20865;43.312;27.152;2024-02-28T19:02:25;101094.99;;;15.43;48.05
34658;BME280;20865;43.312;27.152;2024-02-28T19:04:52;101090.25;;;15.50;47.81
34658;BME280;20865;43.312;27.152;2024-02-28T19:07:22;101089.65;;;15.30;48.46
34658;BME280;20865;43.312;27.152;2024-02-28T19:09:50;101097.91;;;14.89;49.75
34658;BME280;20865;43.312;27.152;2024-02-28T19:12:17;101094.97;;;14.95;49.83
34658;BME280;20865;43.312;27.152;2024-02-28T19:14:45;101095.74;;;14.98;49.50
34658;BME280;20865;43.312;27.152;2024-02-28T19:17:13;101105.23;;;14.97;49.64
34658;BME280;20865;43.312;27.152;2024-02-28T19:19:41;101102.66;;;14.81;50.25
34658;BME280;20865;43.312;27.152;2024-02-28T19:22:08;101102.09;;;14.71;50.47
34658;BME280;20865;43.312;27.152;2024-02-28T19:24:36;101103.83;;;14.45;51.22
34658;BME280;20865;43.312;27.152;2024-02-28T19:27:04;101109.23;;;13.89;52.73
34658;BME280;20865;43.312;27.152;2024-02-28T19:29:31;101108.85;;;13.87;53.12
34658;BME280;20865;43.312;27.152;2024-02-28T19:31:59;101110.05;;;14.06;52.85
34658;BME280;20865;43.312;27.152;2024-02-28T19:34:29;101124.51;;;13.72;53.52
34658;BME280;20865;43.312;27.152;2024-02-28T19:36:56;101126.14;;;13.78;53.60
34658;BME280;20865;43.312;27.152;2024-02-28T19:39:25;101127.16;;;13.89;53.50
34658;BME280;20865;43.312;27.152;2024-02-28T19:41:53;101137.23;;;13.80;53.56
34658;BME280;20865;43.312;27.152;2024-02-28T19:44:22;101136.31;;;13.96;53.15
34658;BME280;20865;43.312;27.152;2024-02-28T19:46:50;101141.59;;;13.99;53.16
34658;BME280;20865;43.312;27.152;2024-02-28T19:49:18;101136.45;;;14.06;52.89
34658;BME280;20865;43.312;27.152;2024-02-28T19:51:46;101137.85;;;14.18;52.66
34658;BME280;20865;43.312;27.152;2024-02-28T19:54:13;101130.83;;;14.14;52.79
34658;BME280;20865;43.312;27.152;2024-02-28T19:56:41;101140.50;;;14.05;53.04
34658;BME280;20865;43.312;27.152;2024-02-28T19:59:09;101152.50;;;13.95;53.38
34658;BME280;20865;43.312;27.152;2024-02-28T20:01:36;101140.62;;;13.72;53.90
34658;BME280;20865;43.312;27.152;2024-02-28T20:27:47;101162.98;;;13.73;54.89
